createdAt,value
2023-05-05T15:03:04.582Z,97377.81
2023-05-05T15:07:06.113Z,97381.66
2023-05-05T15:11:07.721Z,97384.50
2023-05-05T15:15:10.223Z,97380.31
2023-05-05T15:19:13.230Z,97376.22
2023-05-05T15:23:14.585Z,97384.47
2023-05-05T15:27:16.193Z,97371.81
2023-05-05T15:31:17.769Z,97374.59
2023-05-05T15:35:20.658Z,97357.63
2023-05-05T15:39:22.002Z,97369.50
2023-05-05T15:43:23.509Z,97357.06
2023-05-05T15:47:25.126Z,97356.09
2023-05-05T15:51:28.016Z,97358.19
2023-05-05T15:55:29.521Z,97349.72
2023-05-05T15:59:31.019Z,97342.88
2023-05-05T16:03:32.612Z,97342.19
2023-05-05T16:07:35.633Z,97335.06
2023-05-05T16:11:37.362Z,97331.22
2023-05-05T16:15:39.004Z,97323.78
2023-05-05T16:19:40.534Z,97317.97
2023-05-05T16:23:43.410Z,97323.69
2023-05-05T16:27:45.060Z,97315.75
2023-05-05T16:31:46.623Z,97313.47
2023-05-05T16:35:48.201Z,97306.22
2023-05-05T16:39:51.044Z,97298.72
2023-05-05T16:43:52.543Z,97292.19
2023-05-05T16:47:54.184Z,97291.97
2023-05-05T16:51:55.713Z,97301.13
2023-05-05T16:55:58.735Z,97301.31
2023-05-05T17:00:00.300Z,97304.19
2023-05-05T17:04:02.016Z,97301.63
2023-05-05T17:08:03.723Z,97301.38
2023-05-05T17:12:07.113Z,97304.22
2023-05-05T17:16:08.751Z,97299.16
2023-05-05T17:20:11.411Z,97295.28
2023-05-05T17:24:12.903Z,97294.03
2023-05-05T17:28:15.780Z,97303.47
2023-05-05T17:32:17.118Z,97297.19
2023-05-05T17:36:18.605Z,97300.38
2023-05-05T17:40:20.112Z,97298.16
2023-05-05T17:44:23.060Z,97293.19
2023-05-05T17:48:25.686Z,97287.25
2023-05-05T17:52:27.200Z,97288.69
2023-05-05T17:56:28.713Z,97285.97
2023-05-05T18:00:31.552Z,97286.84
2023-05-05T18:04:32.904Z,97282.84
2023-05-05T18:08:34.406Z,97278.75
2023-05-05T18:12:36.058Z,97274.75
2023-05-05T18:16:38.968Z,97289.59
2023-05-05T18:20:40.312Z,97293.09
2023-05-05T18:24:41.817Z,97277.19
2023-05-05T18:28:43.311Z,97263.09
2023-05-05T18:32:46.182Z,97252.66
2023-05-05T18:36:48.203Z,97256.94
2023-05-05T18:40:49.852Z,97248.19
2023-05-05T18:44:51.372Z,97257.31
2023-05-05T18:48:54.204Z,97262.09
2023-05-05T18:52:55.726Z,97262.44
2023-05-05T18:56:57.217Z,97266.28
2023-05-05T19:00:58.728Z,97272.00
2023-05-05T19:05:01.616Z,97286.28
2023-05-05T19:09:03.400Z,97295.06
2023-05-05T19:13:04.984Z,97305.91
2023-05-05T19:17:06.562Z,97307.75
2023-05-05T19:21:09.580Z,97300.84
2023-05-05T19:25:11.518Z,97318.03
2023-05-05T19:29:13.248Z,97309.44
2023-05-05T19:33:14.845Z,97311.41
2023-05-05T19:37:17.692Z,97300.66
2023-05-05T19:41:19.371Z,97300.28
2023-05-05T19:45:20.904Z,97285.91
2023-05-05T19:49:22.403Z,97295.28
2023-05-05T19:53:25.285Z,97294.94
2023-05-05T19:57:26.768Z,97291.16
2023-05-05T20:01:28.943Z,97294.47
2023-05-05T20:05:30.513Z,97299.28
2023-05-05T20:09:33.370Z,97302.31
2023-05-05T20:13:34.879Z,97294.16
2023-05-05T20:17:36.441Z,97292.94
2023-05-05T20:21:37.980Z,97308.63
2023-05-05T20:25:40.908Z,97327.22
2023-05-05T20:29:42.416Z,97338.34
2023-05-05T20:33:43.977Z,97324.13
2023-05-05T20:37:45.493Z,97316.13
2023-05-05T20:41:48.484Z,97334.28
2023-05-05T20:45:50.003Z,97346.88
2023-05-05T20:49:51.509Z,97366.88
2023-05-05T20:53:53.009Z,97407.25
2023-05-05T20:57:55.910Z,97447.22
2023-05-05T21:01:57.438Z,97470.22
2023-05-05T21:05:58.971Z,97484.91
2023-05-05T21:10:00.734Z,97485.72
2023-05-05T21:14:04.240Z,97480.75
2023-05-05T21:18:05.910Z,97479.75
2023-05-05T21:22:07.433Z,97479.81
2023-05-05T21:26:09.235Z,97478.50
2023-05-05T21:30:13.141Z,97479.81
2023-05-05T21:34:14.854Z,97469.34
2023-05-05T21:38:16.346Z,97463.94
2023-05-05T21:42:17.955Z,97453.03
2023-05-05T21:46:20.849Z,97452.84
2023-05-05T21:50:22.407Z,97453.47
2023-05-05T21:54:23.934Z,97450.03
2023-05-05T21:58:25.464Z,97462.81
2023-05-05T22:02:28.353Z,97459.88
2023-05-05T22:06:29.920Z,97461.28
2023-05-05T22:10:31.379Z,97458.19
2023-05-05T22:14:32.838Z,97453.31
2023-05-05T22:18:35.886Z,97444.06
2023-05-05T22:22:37.285Z,97445.16
2023-05-05T22:26:38.766Z,97452.19
2023-05-05T22:30:40.472Z,97460.81
2023-05-05T22:34:43.377Z,97453.50
2023-05-05T22:38:44.856Z,97452.72
2023-05-05T22:42:46.390Z,97446.84
2023-05-05T22:46:47.936Z,97447.34
2023-05-05T22:50:50.799Z,97437.69
2023-05-05T22:54:52.270Z,97445.56
2023-05-05T22:58:53.745Z,97454.34
2023-05-05T23:02:55.328Z,97452.41
2023-05-05T23:06:58.170Z,97457.13
2023-05-05T23:11:00.151Z,97454.69
2023-05-05T23:15:01.672Z,97450.47
2023-05-05T23:19:03.148Z,97449.47
2023-05-05T23:23:05.961Z,97449.31
2023-05-05T23:27:07.446Z,97444.53
2023-05-05T23:31:09.309Z,97443.09
2023-05-05T23:35:11.266Z,97448.78
2023-05-05T23:39:14.353Z,97448.56
2023-05-05T23:43:15.915Z,97452.41
2023-05-05T23:47:17.398Z,97452.41
2023-05-05T23:51:18.868Z,97462.50
2023-05-05T23:55:22.064Z,97461.88
2023-05-05T23:59:23.525Z,97465.47
